sensor_id;sensor_type;location;lat;lon;timestamp;P1;durP1;ratioP1;P2;durP2;ratioP2
20982;SDS011;10650;51.528;6.748;2023-06-04T00:00:03;2.72;;;1.50;;
20982;SDS011;10650;51.528;6.748;2023-06-04T00:02:31;2.80;;;1.73;;
20982;SDS011;10650;51.528;6.748;2023-06-04T00:04:59;4.10;;;1.70;;
20982;SDS011;10650;51.528;6.748;2023-06-04T00:07:28;1.83;;;1.45;;
20982;SDS011;10650;51.528;6.748;2023-06-04T00:09:56;2.92;;;1.80;;
20982;SDS011;10650;51.528;6.748;2023-06-04T00:12:24;2.30;;;1.42;;
20982;SDS011;10650;51.528;6.748;2023-06-04T00:14:52;3.25;;;1.60;;
20982;SDS011;10650;51.528;6.748;2023-06-04T00:17:20;5.93;;;1.83;;
20982;SDS011;10650;51.528;6.748;2023-06-04T00:19:49;2.28;;;1.70;;
20982;SDS011;10650;51.528;6.748;2023-06-04T00:22:17;2.22;;;2.03;;
20982;SDS011;10650;51.528;6.748;2023-06-04T00:24:46;3.72;;;1.80;;
20982;SDS011;10650;51.528;6.748;2023-06-04T00:27:14;3.47;;;1.75;;
20982;SDS011;10650;51.528;6.748;2023-06-04T00:29:42;1.70;;;1.60;;
20982;SDS011;10650;51.528;6.748;2023-06-04T00:32:10;2.70;;;1.67;;
20982;SDS011;10650;51.528;6.748;2023-06-04T00:34:38;2.70;;;1.85;;
20982;SDS011;10650;51.528;6.748;2023-06-04T00:37:08;3.53;;;1.70;;
20982;SDS011;10650;51.528;6.748;2023-06-04T00:39:36;4.20;;;1.92;;
20982;SDS011;10650;51.528;6.748;2023-06-04T00:42:05;3.35;;;1.60;;
20982;SDS011;10650;51.528;6.748;2023-06-04T00:44:33;4.25;;;1.75;;
20982;SDS011;10650;51.528;6.748;2023-06-04T00:47:02;2.25;;;1.60;;
20982;SDS011;10650;51.528;6.748;2023-06-04T00:49:31;6.70;;;1.85;;
20982;SDS011;10650;51.528;6.748;2023-06-04T00:51:58;2.38;;;2.00;;
20982;SDS011;10650;51.528;6.748;2023-06-04T00:54:27;4.18;;;2.00;;
20982;SDS011;10650;51.528;6.748;2023-06-04T00:56:55;4.53;;;2.00;;
20982;SDS011;10650;51.528;6.748;2023-06-04T00:59:24;2.88;;;1.90;;
20982;SDS011;10650;51.528;6.748;2023-06-04T01:01:54;2.95;;;1.80;;
20982;SDS011;10650;51.528;6.748;2023-06-04T01:06:56;3.05;;;1.60;;
20982;SDS011;10650;51.528;6.748;2023-06-04T01:09:26;4.07;;;1.90;;
20982;SDS011;10650;51.528;6.748;2023-06-04T01:11:54;1.92;;;1.73;;
20982;SDS011;10650;51.528;6.748;2023-06-04T01:14:25;1.80;;;1.70;;
20982;SDS011;10650;51.528;6.748;2023-06-04T01:16:55;3.08;;;1.90;;
20982;SDS011;10650;51.528;6.748;2023-06-04T01:19:39;2.95;;;1.80;;
20982;SDS011;10650;51.528;6.748;2023-06-04T01:22:35;2.15;;;1.75;;
20982;SDS011;10650;51.528;6.748;2023-06-04T01:25:09;5.63;;;1.88;;
20982;SDS011;10650;51.528;6.748;2023-06-04T01:27:49;3.67;;;2.00;;
20982;SDS011;10650;51.528;6.748;2023-06-04T01:30:21;3.20;;;1.77;;
20982;SDS011;10650;51.528;6.748;2023-06-04T01:32:52;3.80;;;1.95;;
20982;SDS011;10650;51.528;6.748;2023-06-04T01:35:21;2.70;;;1.90;;
20982;SDS011;10650;51.528;6.748;2023-06-04T01:37:54;2.95;;;1.70;;
20982;SDS011;10650;51.528;6.748;2023-06-04T01:40:22;2.50;;;1.85;;
20982;SDS011;10650;51.528;6.748;2023-06-04T01:42:51;3.40;;;1.90;;
20982;SDS011;10650;51.528;6.748;2023-06-04T01:45:21;2.45;;;1.70;;
20982;SDS011;10650;51.528;6.748;2023-06-04T01:47:50;2.85;;;2.10;;
20982;SDS011;10650;51.528;6.748;2023-06-04T01:50:19;2.85;;;1.90;;
20982;SDS011;10650;51.528;6.748;2023-06-04T01:52:47;2.55;;;1.70;;
20982;SDS011;10650;51.528;6.748;2023-06-04T01:55:15;3.30;;;1.90;;
20982;SDS011;10650;51.528;6.748;2023-06-04T01:57:44;3.75;;;2.03;;
20982;SDS011;10650;51.528;6.748;2023-06-04T02:00:14;4.45;;;1.85;;
20982;SDS011;10650;51.528;6.748;2023-06-04T02:02:45;3.22;;;2.00;;
20982;SDS011;10650;51.528;6.748;2023-06-04T02:05:15;3.72;;;2.05;;
20982;SDS011;10650;51.528;6.748;2023-06-04T02:07:45;5.40;;;2.00;;
20982;SDS011;10650;51.528;6.748;2023-06-04T02:10:14;3.40;;;1.90;;
20982;SDS011;10650;51.528;6.748;2023-06-04T02:12:52;3.90;;;2.15;;
20982;SDS011;10650;51.528;6.748;2023-06-04T02:15:22;4.72;;;2.15;;
20982;SDS011;10650;51.528;6.748;2023-06-04T02:17:53;4.30;;;2.00;;
20982;SDS011;10650;51.528;6.748;2023-06-04T02:20:26;4.22;;;2.10;;
20982;SDS011;10650;51.528;6.748;2023-06-04T02:22:54;2.90;;;2.22;;
20982;SDS011;10650;51.528;6.748;2023-06-04T02:25:22;2.30;;;2.00;;
20982;SDS011;10650;51.528;6.748;2023-06-04T02:27:50;3.47;;;2.20;;
20982;SDS011;10650;51.528;6.748;2023-06-04T02:30:18;3.33;;;2.10;;
20982;SDS011;10650;51.528;6.748;2023-06-04T02:32:46;2.05;;;1.77;;
20982;SDS011;10650;51.528;6.748;2023-06-04T02:35:19;3.67;;;2.10;;
20982;SDS011;10650;51.528;6.748;2023-06-04T02:37:49;3.40;;;2.00;;
20982;SDS011;10650;51.528;6.748;2023-06-04T02:40:17;4.18;;;2.15;;
20982;SDS011;10650;51.528;6.748;2023-06-04T02:42:45;3.50;;;2.00;;
20982;SDS011;10650;51.528;6.748;2023-06-04T02:45:13;3.00;;;2.20;;
20982;SDS011;10650;51.528;6.748;2023-06-04T02:47:41;4.53;;;2.75;;
20982;SDS011;10650;51.528;6.748;2023-06-04T02:50:09;4.28;;;2.40;;
20982;SDS011;10650;51.528;6.748;2023-06-04T02:52:38;4.63;;;2.40;;
20982;SDS011;10650;51.528;6.748;2023-06-04T02:55:09;2.35;;;2.10;;
20982;SDS011;10650;51.528;6.748;2023-06-04T02:57:39;3.53;;;2.10;;
20982;SDS011;10650;51.528;6.748;2023-06-04T03:00:09;3.88;;;2.30;;
20982;SDS011;10650;51.528;6.748;2023-06-04T03:02:40;5.38;;;2.10;;
20982;SDS011;10650;51.528;6.748;2023-06-04T03:05:09;3.47;;;2.38;;
20982;SDS011;10650;51.528;6.748;2023-06-04T03:07:41;3.75;;;2.33;;
20982;SDS011;10650;51.528;6.748;2023-06-04T03:10:12;2.78;;;2.35;;
20982;SDS011;10650;51.528;6.748;2023-06-04T03:12:41;3.47;;;2.30;;
20982;SDS011;10650;51.528;6.748;2023-06-04T03:15:09;2.90;;;2.60;;
20982;SDS011;10650;51.528;6.748;2023-06-04T03:17:38;3.95;;;1.90;;
20982;SDS011;10650;51.528;6.748;2023-06-04T03:20:06;2.35;;;2.10;;
20982;SDS011;10650;51.528;6.748;2023-06-04T03:22:35;5.05;;;2.50;;
20982;SDS011;10650;51.528;6.748;2023-06-04T03:25:05;2.90;;;2.47;;
20982;SDS011;10650;51.528;6.748;2023-06-04T03:27:34;2.92;;;2.22;;
20982;SDS011;10650;51.528;6.748;2023-06-04T03:30:04;7.38;;;2.80;;
20982;SDS011;10650;51.528;6.748;2023-06-04T03:32:33;3.40;;;2.40;;
20982;SDS011;10650;51.528;6.748;2023-06-04T03:35:03;5.22;;;2.40;;
20982;SDS011;10650;51.528;6.748;2023-06-04T03:37:32;4.22;;;2.55;;
20982;SDS011;10650;51.528;6.748;2023-06-04T03:40:04;3.20;;;2.65;;
20982;SDS011;10650;51.528;6.748;2023-06-04T03:42:34;4.05;;;2.63;;
20982;SDS011;10650;51.528;6.748;2023-06-04T03:45:02;4.72;;;2.30;;
20982;SDS011;10650;51.528;6.748;2023-06-04T03:47:30;3.25;;;2.60;;
20982;SDS011;10650;51.528;6.748;2023-06-04T03:49:58;2.88;;;2.20;;
20982;SDS011;10650;51.528;6.748;2023-06-04T03:52:28;4.53;;;2.20;;
20982;SDS011;10650;51.528;6.748;2023-06-04T03:54:56;4.85;;;2.58;;
20982;SDS011;10650;51.528;6.748;2023-06-04T03:57:25;2.67;;;2.38;;
20982;SDS011;10650;51.528;6.748;2023-06-04T03:59:59;4.80;;;2.58;;
20982;SDS011;10650;51.528;6.748;2023-06-04T04:02:36;3.42;;;2.33;;
20982;SDS011;10650;51.528;6.748;2023-06-04T04:05:04;3.60;;;2.40;;
20982;SDS011;10650;51.528;6.748;2023-06-04T04:07:33;3.63;;;2.20;;
20982;SDS011;10650;51.528;6.748;2023-06-04T04:10:01;3.83;;;2.60;;
20982;SDS011;10650;51.528;6.748;2023-06-04T04:12:30;3.20;;;2.20;;
20982;SDS011;10650;51.528;6.748;2023-06-04T04:14:58;5.13;;;2.45;;
20982;SDS011;10650;51.528;6.748;2023-06-04T04:17:26;6.22;;;2.50;;
20982;SDS011;10650;51.528;6.748;2023-06-04T04:19:54;3.53;;;2.30;;
20982;SDS011;10650;51.528;6.748;2023-06-04T04:22:22;3.33;;;2.50;;
20982;SDS011;10650;51.528;6.748;2023-06-04T04:24:50;3.40;;;2.30;;
20982;SDS011;10650;51.528;6.748;2023-06-04T04:27:18;4.47;;;2.67;;
20982;SDS011;10650;51.528;6.748;2023-06-04T04:29:47;4.57;;;2.40;;
20982;SDS011;10650;51.528;6.748;2023-06-04T04:32:15;4.25;;;2.85;;
20982;SDS011;10650;51.528;6.748;2023-06-04T04:34:53;3.13;;;2.53;;
20982;SDS011;10650;51.528;6.748;2023-06-04T04:37:21;5.85;;;2.80;;
20982;SDS011;10650;51.528;6.748;2023-06-04T04:39:50;3.13;;;2.40;;
20982;SDS011;10650;51.528;6.748;2023-06-04T04:42:19;2.97;;;2.58;;
20982;SDS011;10650;51.528;6.748;2023-06-04T04:44:48;4.03;;;2.40;;
20982;SDS011;10650;51.528;6.748;2023-06-04T04:47:16;4.18;;;2.38;;
20982;SDS011;10650;51.528;6.748;2023-06-04T04:49:44;3.67;;;2.60;;
20982;SDS011;10650;51.528;6.748;2023-06-04T04:52:15;3.65;;;2.38;;
20982;SDS011;10650;51.528;6.748;2023-06-04T04:54:43;3.92;;;2.60;;
20982;SDS011;10650;51.528;6.748;2023-06-04T04:57:11;6.50;;;2.90;;
20982;SDS011;10650;51.528;6.748;2023-06-04T04:59:39;4.63;;;2.47;;
20982;SDS011;10650;51.528;6.748;2023-06-04T05:02:09;2.95;;;2.28;;
20982;SDS011;10650;51.528;6.748;2023-06-04T05:04:36;4.78;;;2.60;;
20982;SDS011;10650;51.528;6.748;2023-06-04T05:07:04;4.22;;;2.78;;
20982;SDS011;10650;51.528;6.748;2023-06-04T05:09:32;4.60;;;2.65;;
20982;SDS011;10650;51.528;6.748;2023-06-04T05:12:00;3.65;;;2.65;;
20982;SDS011;10650;51.528;6.748;2023-06-04T05:14:28;4.53;;;2.40;;
20982;SDS011;10650;51.528;6.748;2023-06-04T05:16:56;3.80;;;2.40;;
20982;SDS011;10650;51.528;6.748;2023-06-04T05:19:25;4.22;;;2.50;;
20982;SDS011;10650;51.528;6.748;2023-06-04T05:21:53;2.70;;;2.47;;
20982;SDS011;10650;51.528;6.748;2023-06-04T05:24:21;2.72;;;2.40;;
20982;SDS011;10650;51.528;6.748;2023-06-04T05:26:48;3.65;;;2.28;;
20982;SDS011;10650;51.528;6.748;2023-06-04T05:29:16;3.10;;;2.40;;
20982;SDS011;10650;51.528;6.748;2023-06-04T05:31:44;3.17;;;2.40;;
20982;SDS011;10650;51.528;6.748;2023-06-04T05:34:12;4.05;;;2.58;;
20982;SDS011;10650;51.528;6.748;2023-06-04T05:36:44;3.42;;;2.15;;
20982;SDS011;10650;51.528;6.748;2023-06-04T05:39:12;3.95;;;2.40;;
20982;SDS011;10650;51.528;6.748;2023-06-04T05:41:40;3.20;;;2.50;;
20982;SDS011;10650;51.528;6.748;2023-06-04T05:44:08;3.30;;;2.58;;
20982;SDS011;10650;51.528;6.748;2023-06-04T05:46:36;3.72;;;2.67;;
20982;SDS011;10650;51.528;6.748;2023-06-04T05:49:04;3.67;;;2.30;;
20982;SDS011;10650;51.528;6.748;2023-06-04T05:51:32;4.40;;;2.80;;
20982;SDS011;10650;51.528;6.748;2023-06-04T05:54:01;5.38;;;4.13;;
20982;SDS011;10650;51.528;6.748;2023-06-04T05:56:29;4.57;;;3.35;;
20982;SDS011;10650;51.528;6.748;2023-06-04T05:58:58;3.95;;;2.65;;
20982;SDS011;10650;51.528;6.748;2023-06-04T06:01:33;6.13;;;3.00;;
20982;SDS011;10650;51.528;6.748;2023-06-04T06:04:05;4.20;;;2.50;;
20982;SDS011;10650;51.528;6.748;2023-06-04T06:06:37;2.47;;;2.17;;
20982;SDS011;10650;51.528;6.748;2023-06-04T06:09:07;3.55;;;2.90;;
20982;SDS011;10650;51.528;6.748;2023-06-04T06:11:35;3.85;;;2.35;;
20982;SDS011;10650;51.528;6.748;2023-06-04T06:14:03;4.50;;;2.40;;
20982;SDS011;10650;51.528;6.748;2023-06-04T06:16:31;2.85;;;2.30;;
20982;SDS011;10650;51.528;6.748;2023-06-04T06:18:59;4.30;;;2.35;;
20982;SDS011;10650;51.528;6.748;2023-06-04T06:21:28;2.67;;;2.40;;
20982;SDS011;10650;51.528;6.748;2023-06-04T06:23:55;2.50;;;2.30;;
20982;SDS011;10650;51.528;6.748;2023-06-04T06:26:49;2.38;;;2.17;;
20982;SDS011;10650;51.528;6.748;2023-06-04T06:29:17;3.75;;;2.38;;
20982;SDS011;10650;51.528;6.748;2023-06-04T06:31:46;2.85;;;2.20;;
20982;SDS011;10650;51.528;6.748;2023-06-04T06:34:14;2.92;;;2.58;;
20982;SDS011;10650;51.528;6.748;2023-06-04T06:36:42;3.42;;;2.30;;
20982;SDS011;10650;51.528;6.748;2023-06-04T06:39:10;3.78;;;3.13;;
20982;SDS011;10650;51.528;6.748;2023-06-04T06:41:38;4.95;;;2.40;;
20982;SDS011;10650;51.528;6.748;2023-06-04T06:44:13;2.78;;;2.50;;
20982;SDS011;10650;51.528;6.748;2023-06-04T06:46:41;3.15;;;2.30;;
20982;SDS011;10650;51.528;6.748;2023-06-04T06:49:09;2.97;;;2.20;;
20982;SDS011;10650;51.528;6.748;2023-06-04T06:51:37;2.67;;;1.95;;
20982;SDS011;10650;51.528;6.748;2023-06-04T06:54:04;2.70;;;2.05;;
20982;SDS011;10650;51.528;6.748;2023-06-04T06:56:32;4.93;;;2.17;;
20982;SDS011;10650;51.528;6.748;2023-06-04T06:59:00;3.90;;;2.13;;
20982;SDS011;10650;51.528;6.748;2023-06-04T07:01:30;2.50;;;2.30;;
20982;SDS011;10650;51.528;6.748;2023-06-04T07:04:00;4.80;;;2.57;;
20982;SDS011;10650;51.528;6.748;2023-06-04T07:06:28;3.72;;;2.22;;
20982;SDS011;10650;51.528;6.748;2023-06-04T07:08:55;3.28;;;2.40;;
20982;SDS011;10650;51.528;6.748;2023-06-04T07:11:23;3.10;;;2.08;;
20982;SDS011;10650;51.528;6.748;2023-06-04T07:13:52;3.28;;;2.25;;
20982;SDS011;10650;51.528;6.748;2023-06-04T07:16:19;3.65;;;2.22;;
20982;SDS011;10650;51.528;6.748;2023-06-04T07:18:49;3.10;;;2.47;;
20982;SDS011;10650;51.528;6.748;2023-06-04T07:21:17;4.57;;;2.33;;
20982;SDS011;10650;51.528;6.748;2023-06-04T07:23:46;7.50;;;2.80;;
20982;SDS011;10650;51.528;6.748;2023-06-04T07:26:18;4.55;;;2.35;;
20982;SDS011;10650;51.528;6.748;2023-06-04T07:28:46;3.40;;;2.30;;
20982;SDS011;10650;51.528;6.748;2023-06-04T07:31:17;3.17;;;2.35;;
20982;SDS011;10650;51.528;6.748;2023-06-04T07:33:45;2.70;;;2.13;;
20982;SDS011;10650;51.528;6.748;2023-06-04T07:36:16;5.03;;;2.10;;
20982;SDS011;10650;51.528;6.748;2023-06-04T07:38:44;3.65;;;2.40;;
20982;SDS011;10650;51.528;6.748;2023-06-04T07:41:12;3.60;;;2.20;;
20982;SDS011;10650;51.528;6.748;2023-06-04T07:43:40;4.32;;;2.42;;
20982;SDS011;10650;51.528;6.748;2023-06-04T07:46:07;3.08;;;1.83;;
20982;SDS011;10650;51.528;6.748;2023-06-04T07:48:36;4.43;;;2.72;;
20982;SDS011;10650;51.528;6.748;2023-06-04T07:51:04;3.90;;;2.10;;
20982;SDS011;10650;51.528;6.748;2023-06-04T07:53:35;2.70;;;1.98;;
20982;SDS011;10650;51.528;6.748;2023-06-04T07:56:04;4.75;;;2.35;;
20982;SDS011;10650;51.528;6.748;2023-06-04T07:58:33;4.00;;;1.90;;
20982;SDS011;10650;51.528;6.748;2023-06-04T08:01:00;3.13;;;1.90;;
20982;SDS011;10650;51.528;6.748;2023-06-04T08:03:29;4.35;;;2.40;;
20982;SDS011;10650;51.528;6.748;2023-06-04T08:05:59;3.80;;;2.17;;
20982;SDS011;10650;51.528;6.748;2023-06-04T08:08:30;4.18;;;2.33;;
20982;SDS011;10650;51.528;6.748;2023-06-04T08:10:59;3.97;;;2.20;;
20982;SDS011;10650;51.528;6.748;2023-06-04T08:13:27;3.58;;;1.90;;
20982;SDS011;10650;51.528;6.748;2023-06-04T08:15:55;4.72;;;2.28;;
20982;SDS011;10650;51.528;6.748;2023-06-04T08:18:22;2.60;;;2.00;;
20982;SDS011;10650;51.528;6.748;2023-06-04T08:20:50;2.75;;;1.95;;
20982;SDS011;10650;51.528;6.748;2023-06-04T08:23:18;3.90;;;1.95;;
20982;SDS011;10650;51.528;6.748;2023-06-04T08:25:46;2.83;;;2.10;;
20982;SDS011;10650;51.528;6.748;2023-06-04T08:28:15;3.63;;;1.98;;
20982;SDS011;10650;51.528;6.748;2023-06-04T08:30:44;5.03;;;2.08;;
20982;SDS011;10650;51.528;6.748;2023-06-04T08:33:12;5.07;;;2.13;;
20982;SDS011;10650;51.528;6.748;2023-06-04T08:35:40;3.58;;;1.85;;
20982;SDS011;10650;51.528;6.748;2023-06-04T08:38:07;2.90;;;2.10;;
20982;SDS011;10650;51.528;6.748;2023-06-04T08:40:35;2.97;;;1.98;;
20982;SDS011;10650;51.528;6.748;2023-06-04T08:43:03;4.75;;;2.35;;
20982;SDS011;10650;51.528;6.748;2023-06-04T08:45:33;3.63;;;1.95;;
20982;SDS011;10650;51.528;6.748;2023-06-04T08:48:07;2.10;;;1.80;;
20982;SDS011;10650;51.528;6.748;2023-06-04T08:50:38;4.65;;;2.00;;
20982;SDS011;10650;51.528;6.748;2023-06-04T08:53:11;2.97;;;2.05;;
20982;SDS011;10650;51.528;6.748;2023-06-04T08:55:42;3.50;;;1.92;;
20982;SDS011;10650;51.528;6.748;2023-06-04T08:58:10;3.55;;;1.90;;
20982;SDS011;10650;51.528;6.748;2023-06-04T09:00:40;3.15;;;1.95;;
20982;SDS011;10650;51.528;6.748;2023-06-04T09:03:08;2.50;;;2.00;;
20982;SDS011;10650;51.528;6.748;2023-06-04T09:05:37;6.38;;;2.30;;
20982;SDS011;10650;51.528;6.748;2023-06-04T09:08:08;4.43;;;2.20;;
20982;SDS011;10650;51.528;6.748;2023-06-04T09:10:39;2.80;;;2.13;;
20982;SDS011;10650;51.528;6.748;2023-06-04T09:13:08;3.65;;;2.00;;
20982;SDS011;10650;51.528;6.748;2023-06-04T09:15:37;4.18;;;1.95;;
20982;SDS011;10650;51.528;6.748;2023-06-04T09:18:06;3.15;;;2.00;;
20982;SDS011;10650;51.528;6.748;2023-06-04T09:20:34;1.95;;;1.85;;
20982;SDS011;10650;51.528;6.748;2023-06-04T09:23:02;2.85;;;2.25;;
20982;SDS011;10650;51.528;6.748;2023-06-04T09:25:42;2.80;;;2.22;;
20982;SDS011;10650;51.528;6.748;2023-06-04T09:28:10;4.95;;;2.53;;
20982;SDS011;10650;51.528;6.748;2023-06-04T09:30:38;7.15;;;2.67;;
20982;SDS011;10650;51.528;6.748;2023-06-04T09:33:07;2.17;;;1.98;;
20982;SDS011;10650;51.528;6.748;2023-06-04T09:35:36;3.47;;;2.15;;
20982;SDS011;10650;51.528;6.748;2023-06-04T09:38:04;3.30;;;2.40;;
20982;SDS011;10650;51.528;6.748;2023-06-04T09:40:35;3.13;;;2.22;;
20982;SDS011;10650;51.528;6.748;2023-06-04T09:43:04;2.50;;;2.10;;
20982;SDS011;10650;51.528;6.748;2023-06-04T09:45:33;3.92;;;2.60;;
20982;SDS011;10650;51.528;6.748;2023-06-04T09:48:04;3.63;;;2.60;;
20982;SDS011;10650;51.528;6.748;2023-06-04T09:50:37;2.35;;;2.15;;
20982;SDS011;10650;51.528;6.748;2023-06-04T09:53:14;2.95;;;1.90;;
20982;SDS011;10650;51.528;6.748;2023-06-04T09:55:42;3.20;;;2.05;;
20982;SDS011;10650;51.528;6.748;2023-06-04T09:58:10;2.08;;;1.83;;
20982;SDS011;10650;51.528;6.748;2023-06-04T10:00:39;3.33;;;2.10;;
20982;SDS011;10650;51.528;6.748;2023-06-04T10:03:07;2.63;;;2.10;;
20982;SDS011;10650;51.528;6.748;2023-06-04T10:05:43;2.72;;;1.90;;
20982;SDS011;10650;51.528;6.748;2023-06-04T10:08:11;3.15;;;2.03;;
20982;SDS011;10650;51.528;6.748;2023-06-04T10:10:42;4.72;;;2.05;;
20982;SDS011;10650;51.528;6.748;2023-06-04T10:13:16;2.45;;;2.10;;
20982;SDS011;10650;51.528;6.748;2023-06-04T10:15:44;4.88;;;2.30;;
20982;SDS011;10650;51.528;6.748;2023-06-04T10:18:13;4.00;;;2.10;;
20982;SDS011;10650;51.528;6.748;2023-06-04T10:20:43;4.18;;;2.30;;
20982;SDS011;10650;51.528;6.748;2023-06-04T10:23:12;5.10;;;2.30;;
20982;SDS011;10650;51.528;6.748;2023-06-04T10:25:40;3.35;;;2.33;;
20982;SDS011;10650;51.528;6.748;2023-06-04T10:28:08;2.50;;;2.00;;
20982;SDS011;10650;51.528;6.748;2023-06-04T10:30:35;3.60;;;2.22;;
20982;SDS011;10650;51.528;6.748;2023-06-04T10:33:03;3.75;;;2.00;;
20982;SDS011;10650;51.528;6.748;2023-06-04T10:35:31;2.53;;;1.90;;
20982;SDS011;10650;51.528;6.748;2023-06-04T10:38:08;2.35;;;1.80;;
20982;SDS011;10650;51.528;6.748;2023-06-04T10:40:37;3.15;;;1.98;;
20982;SDS011;10650;51.528;6.748;2023-06-04T10:43:05;2.47;;;1.85;;
20982;SDS011;10650;51.528;6.748;2023-06-04T10:45:34;2.20;;;1.98;;
20982;SDS011;10650;51.528;6.748;2023-06-04T10:48:03;2.20;;;1.85;;
20982;SDS011;10650;51.528;6.748;2023-06-04T10:50:32;2.13;;;1.92;;
20982;SDS011;10650;51.528;6.748;2023-06-04T10:53:01;1.95;;;1.80;;
20982;SDS011;10650;51.528;6.748;2023-06-04T10:55:31;3.50;;;2.33;;
20982;SDS011;10650;51.528;6.748;2023-06-04T10:58:01;3.92;;;2.22;;
20982;SDS011;10650;51.528;6.748;2023-06-04T11:00:39;2.20;;;2.00;;
20982;SDS011;10650;51.528;6.748;2023-06-04T11:03:09;1.85;;;1.67;;
20982;SDS011;10650;51.528;6.748;2023-06-04T11:05:41;3.35;;;1.88;;
20982;SDS011;10650;51.528;6.748;2023-06-04T11:08:11;2.72;;;2.00;;
20982;SDS011;10650;51.528;6.748;2023-06-04T11:10:42;6.03;;;2.55;;
20982;SDS011;10650;51.528;6.748;2023-06-04T11:13:11;2.40;;;1.90;;
20982;SDS011;10650;51.528;6.748;2023-06-04T11:15:39;2.92;;;2.08;;
20982;SDS011;10650;51.528;6.748;2023-06-04T11:18:08;2.78;;;1.90;;
20982;SDS011;10650;51.528;6.748;2023-06-04T11:20:41;3.08;;;1.92;;
20982;SDS011;10650;51.528;6.748;2023-06-04T11:23:11;3.17;;;2.00;;
20982;SDS011;10650;51.528;6.748;2023-06-04T11:25:39;4.30;;;2.00;;
20982;SDS011;10650;51.528;6.748;2023-06-04T11:28:14;5.15;;;2.40;;
20982;SDS011;10650;51.528;6.748;2023-06-04T11:30:55;3.22;;;2.00;;
20982;SDS011;10650;51.528;6.748;2023-06-04T11:33:24;3.40;;;2.30;;
20982;SDS011;10650;51.528;6.748;2023-06-04T11:35:55;5.18;;;2.33;;
20982;SDS011;10650;51.528;6.748;2023-06-04T11:38:22;3.38;;;2.30;;
20982;SDS011;10650;51.528;6.748;2023-06-04T11:40:57;4.50;;;2.42;;
20982;SDS011;10650;51.528;6.748;2023-06-04T11:43:28;3.05;;;2.13;;
20982;SDS011;10650;51.528;6.748;2023-06-04T11:45:56;4.35;;;2.50;;
20982;SDS011;10650;51.528;6.748;2023-06-04T11:48:25;2.72;;;2.00;;
20982;SDS011;10650;51.528;6.748;2023-06-04T11:50:54;1.98;;;1.80;;
20982;SDS011;10650;51.528;6.748;2023-06-04T11:53:21;3.90;;;1.90;;
20982;SDS011;10650;51.528;6.748;2023-06-04T11:55:52;2.58;;;2.08;;
20982;SDS011;10650;51.528;6.748;2023-06-04T11:58:21;4.00;;;1.98;;
20982;SDS011;10650;51.528;6.748;2023-06-04T12:00:49;2.92;;;2.00;;
20982;SDS011;10650;51.528;6.748;2023-06-04T12:03:17;4.40;;;2.10;;
20982;SDS011;10650;51.528;6.748;2023-06-04T12:05:45;2.72;;;2.40;;
20982;SDS011;10650;51.528;6.748;2023-06-04T12:08:13;2.78;;;1.90;;
20982;SDS011;10650;51.528;6.748;2023-06-04T12:10:41;3.90;;;2.60;;
20982;SDS011;10650;51.528;6.748;2023-06-04T12:13:09;3.58;;;2.13;;
20982;SDS011;10650;51.528;6.748;2023-06-04T12:15:39;3.15;;;2.20;;
20982;SDS011;10650;51.528;6.748;2023-06-04T12:18:07;3.17;;;2.17;;
20982;SDS011;10650;51.528;6.748;2023-06-04T12:20:36;3.85;;;1.95;;
20982;SDS011;10650;51.528;6.748;2023-06-04T12:23:05;2.25;;;1.83;;
20982;SDS011;10650;51.528;6.748;2023-06-04T12:25:34;3.40;;;2.10;;
20982;SDS011;10650;51.528;6.748;2023-06-04T12:28:04;3.40;;;2.28;;
20982;SDS011;10650;51.528;6.748;2023-06-04T12:30:35;3.90;;;2.17;;
20982;SDS011;10650;51.528;6.748;2023-06-04T12:33:05;2.65;;;1.95;;
20982;SDS011;10650;51.528;6.748;2023-06-04T12:35:33;3.75;;;1.83;;
20982;SDS011;10650;51.528;6.748;2023-06-04T12:38:02;2.55;;;1.95;;
20982;SDS011;10650;51.528;6.748;2023-06-04T12:40:31;2.03;;;1.80;;
20982;SDS011;10650;51.528;6.748;2023-06-04T12:42:59;3.83;;;2.05;;
20982;SDS011;10650;51.528;6.748;2023-06-04T12:45:27;2.90;;;2.10;;
20982;SDS011;10650;51.528;6.748;2023-06-04T12:47:55;2.45;;;1.85;;
20982;SDS011;10650;51.528;6.748;2023-06-04T12:50:24;3.30;;;2.15;;
20982;SDS011;10650;51.528;6.748;2023-06-04T12:52:52;3.75;;;2.38;;
20982;SDS011;10650;51.528;6.748;2023-06-04T12:55:19;3.05;;;2.15;;
20982;SDS011;10650;51.528;6.748;2023-06-04T12:57:47;3.53;;;2.00;;
20982;SDS011;10650;51.528;6.748;2023-06-04T13:00:15;3.05;;;1.90;;
20982;SDS011;10650;51.528;6.748;2023-06-04T13:02:43;4.00;;;2.20;;
20982;SDS011;10650;51.528;6.748;2023-06-04T13:05:11;3.65;;;2.10;;
20982;SDS011;10650;51.528;6.748;2023-06-04T13:07:40;3.85;;;2.50;;
20982;SDS011;10650;51.528;6.748;2023-06-04T13:10:08;3.35;;;2.30;;
20982;SDS011;10650;51.528;6.748;2023-06-04T13:12:36;4.32;;;2.30;;
20982;SDS011;10650;51.528;6.748;2023-06-04T13:15:04;3.63;;;2.10;;
20982;SDS011;10650;51.528;6.748;2023-06-04T13:17:33;4.03;;;2.20;;
20982;SDS011;10650;51.528;6.748;2023-06-04T13:20:00;5.43;;;2.15;;
20982;SDS011;10650;51.528;6.748;2023-06-04T13:22:29;2.50;;;2.10;;
20982;SDS011;10650;51.528;6.748;2023-06-04T13:24:58;2.40;;;1.88;;
20982;SDS011;10650;51.528;6.748;2023-06-04T13:27:26;2.35;;;1.80;;
20982;SDS011;10650;51.528;6.748;2023-06-04T13:29:54;3.35;;;1.98;;
20982;SDS011;10650;51.528;6.748;2023-06-04T13:32:22;2.78;;;2.40;;
20982;SDS011;10650;51.528;6.748;2023-06-04T13:34:50;3.25;;;2.40;;
20982;SDS011;10650;51.528;6.748;2023-06-04T13:37:18;2.83;;;2.10;;
20982;SDS011;10650;51.528;6.748;2023-06-04T13:39:45;4.82;;;2.38;;
20982;SDS011;10650;51.528;6.748;2023-06-04T13:42:14;2.45;;;2.20;;
20982;SDS011;10650;51.528;6.748;2023-06-04T13:44:42;2.50;;;2.22;;
20982;SDS011;10650;51.528;6.748;2023-06-04T13:47:10;2.35;;;2.13;;
20982;SDS011;10650;51.528;6.748;2023-06-04T13:49:38;5.07;;;2.78;;
20982;SDS011;10650;51.528;6.748;2023-06-04T13:52:05;2.97;;;2.67;;
20982;SDS011;10650;51.528;6.748;2023-06-04T13:54:33;2.78;;;2.50;;
20982;SDS011;10650;51.528;6.748;2023-06-04T13:57:01;2.42;;;2.22;;
20982;SDS011;10650;51.528;6.748;2023-06-04T13:59:31;5.63;;;2.60;;
20982;SDS011;10650;51.528;6.748;2023-06-04T14:01:59;2.78;;;2.35;;
20982;SDS011;10650;51.528;6.748;2023-06-04T14:04:27;2.35;;;2.10;;
20982;SDS011;10650;51.528;6.748;2023-06-04T14:06:54;2.40;;;2.20;;
20982;SDS011;10650;51.528;6.748;2023-06-04T14:09:22;3.30;;;2.45;;
20982;SDS011;10650;51.528;6.748;2023-06-04T14:11:50;4.65;;;2.60;;
20982;SDS011;10650;51.528;6.748;2023-06-04T14:14:18;2.80;;;2.20;;
20982;SDS011;10650;51.528;6.748;2023-06-04T14:16:48;2.85;;;2.50;;
20982;SDS011;10650;51.528;6.748;2023-06-04T14:19:16;3.13;;;2.42;;
20982;SDS011;10650;51.528;6.748;2023-06-04T14:21:44;2.65;;;2.45;;
20982;SDS011;10650;51.528;6.748;2023-06-04T14:24:12;3.10;;;2.80;;
20982;SDS011;10650;51.528;6.748;2023-06-04T14:26:40;4.20;;;2.30;;
20982;SDS011;10650;51.528;6.748;2023-06-04T14:29:07;3.10;;;2.28;;
20982;SDS011;10650;51.528;6.748;2023-06-04T14:31:35;3.05;;;2.63;;
20982;SDS011;10650;51.528;6.748;2023-06-04T14:34:04;3.03;;;2.45;;
20982;SDS011;10650;51.528;6.748;2023-06-04T14:36:33;2.60;;;2.38;;
20982;SDS011;10650;51.528;6.748;2023-06-04T14:39:01;3.78;;;2.40;;
20982;SDS011;10650;51.528;6.748;2023-06-04T14:41:29;2.65;;;2.17;;
20982;SDS011;10650;51.528;6.748;2023-06-04T14:43:57;4.10;;;2.00;;
20982;SDS011;10650;51.528;6.748;2023-06-04T14:46:25;4.07;;;2.00;;
20982;SDS011;10650;51.528;6.748;2023-06-04T14:48:55;3.47;;;2.00;;
20982;SDS011;10650;51.528;6.748;2023-06-04T14:51:24;3.80;;;2.20;;
20982;SDS011;10650;51.528;6.748;2023-06-04T14:53:52;3.30;;;2.50;;
20982;SDS011;10650;51.528;6.748;2023-06-04T14:56:20;4.20;;;2.42;;
20982;SDS011;10650;51.528;6.748;2023-06-04T14:58:48;4.13;;;2.55;;
20982;SDS011;10650;51.528;6.748;2023-06-04T15:01:16;2.50;;;2.30;;